createdAt,value
2018-09-03T00:02:07.463Z,19.70
2018-09-03T00:04:40.060Z,19.70
2018-09-03T00:07:12.605Z,19.60
2018-09-03T00:09:45.136Z,19.60
2018-09-03T00:12:17.607Z,19.60
2018-09-03T00:14:50.245Z,19.50
2018-09-03T00:17:22.714Z,19.50
2018-09-03T00:19:55.290Z,19.50
2018-09-03T00:22:27.788Z,19.40
2018-09-03T00:25:00.447Z,19.40
2018-09-03T00:27:32.920Z,19.40
2018-09-03T00:30:05.566Z,19.30
2018-09-03T00:32:42.909Z,19.20
2018-09-03T00:38:02.160Z,19.10
2018-09-03T00:40:39.212Z,19.10
2018-09-03T00:43:16.521Z,19.00
2018-09-03T00:45:53.896Z,18.90
2018-09-03T00:48:26.462Z,18.90
2018-09-03T00:50:59.025Z,18.90
2018-09-03T00:53:31.859Z,18.80
2018-09-03T00:56:04.419Z,18.80
2018-09-03T00:58:36.995Z,18.70
2018-09-03T01:01:09.761Z,18.70
2018-09-03T01:03:42.758Z,18.60
2018-09-03T01:06:15.347Z,18.60
2018-09-03T01:08:47.949Z,18.60
2018-09-03T01:11:20.725Z,18.50
2018-09-03T01:13:53.276Z,18.50
2018-09-03T01:16:25.897Z,18.40
2018-09-03T01:18:58.663Z,18.40
2018-09-03T01:21:31.282Z,18.40
2018-09-03T01:24:03.751Z,18.30
2018-09-03T01:26:36.532Z,18.30
2018-09-03T01:29:09.104Z,18.30
2018-09-03T01:31:41.670Z,18.30
2018-09-03T01:34:14.241Z,18.30
2018-09-03T01:36:46.928Z,18.30
2018-09-03T01:39:19.420Z,18.30
2018-09-03T01:41:52.064Z,18.30
2018-09-03T01:44:24.547Z,18.30
2018-09-03T01:46:57.129Z,18.30
2018-09-03T01:49:29.639Z,18.30
2018-09-03T01:52:02.255Z,18.30
2018-09-03T01:54:34.819Z,18.20
2018-09-03T01:57:07.611Z,18.20
2018-09-03T01:59:40.184Z,18.20
2018-09-03T02:02:12.915Z,18.20
2018-09-03T02:04:45.385Z,18.20
2018-09-03T02:07:18.061Z,18.20
2018-09-03T02:09:50.617Z,18.20
2018-09-03T02:12:23.219Z,18.20
2018-09-03T02:14:55.799Z,18.20
2018-09-03T02:17:28.464Z,18.20
2018-09-03T02:20:01.016Z,18.20
2018-09-03T02:22:33.670Z,18.20
2018-09-03T02:25:06.509Z,18.20
2018-09-03T02:27:39.152Z,18.20
2018-09-03T02:30:11.685Z,18.20
2018-09-03T02:32:44.355Z,18.10
2018-09-03T02:35:16.918Z,18.10
2018-09-03T02:37:49.507Z,18.10
2018-09-03T02:40:21.988Z,18.10
2018-09-03T02:42:54.509Z,18.10
2018-09-03T02:45:27.178Z,18.10
2018-09-03T02:47:59.737Z,18.00
2018-09-03T02:50:32.379Z,18.00
2018-09-03T02:53:05.028Z,18.00
2018-09-03T02:55:37.572Z,18.00
2018-09-03T02:58:10.228Z,18.00
2018-09-03T03:00:42.846Z,18.00
2018-09-03T03:03:15.410Z,18.10
2018-09-03T03:05:48.004Z,18.00
2018-09-03T03:08:20.691Z,18.00
2018-09-03T03:10:53.175Z,18.00
2018-09-03T03:13:25.950Z,18.00
2018-09-03T03:15:58.654Z,18.00
2018-09-03T03:18:31.298Z,18.00
2018-09-03T03:21:03.850Z,18.00
2018-09-03T03:23:36.572Z,18.00
2018-09-03T03:26:09.125Z,18.00
2018-09-03T03:28:41.859Z,18.00
2018-09-03T03:31:14.380Z,18.00
2018-09-03T03:33:46.998Z,17.90
2018-09-03T03:36:19.574Z,18.00
2018-09-03T03:38:52.351Z,18.00
2018-09-03T03:41:24.872Z,18.00
2018-09-03T03:43:57.435Z,18.10
2018-09-03T03:46:29.982Z,18.10
2018-09-03T03:49:02.618Z,18.10
2018-09-03T03:51:35.210Z,18.20
2018-09-03T03:54:07.826Z,18.20
2018-09-03T03:56:40.303Z,18.20
2018-09-03T03:59:12.839Z,18.20
2018-09-03T04:01:45.507Z,18.20
2018-09-03T04:04:18.134Z,18.20
2018-09-03T04:06:50.653Z,18.20
2018-09-03T04:09:23.282Z,18.30
2018-09-03T04:11:55.817Z,18.30
2018-09-03T04:14:28.357Z,18.40
2018-09-03T04:17:00.884Z,18.40
2018-09-03T04:19:33.539Z,18.30
2018-09-03T04:22:06.025Z,18.40
2018-09-03T04:24:38.627Z,18.40
2018-09-03T04:27:11.183Z,18.40
2018-09-03T04:29:43.721Z,18.40
2018-09-03T04:32:14.965Z,18.50
2018-09-03T04:34:46.257Z,18.50
2018-09-03T04:37:17.648Z,18.50
2018-09-03T04:39:48.981Z,18.50
2018-09-03T04:42:20.206Z,18.50
2018-09-03T04:44:51.472Z,18.50
2018-09-03T04:47:22.693Z,18.50
2018-09-03T04:49:53.955Z,18.60
2018-09-03T04:52:25.277Z,18.60
2018-09-03T04:54:57.073Z,18.60
2018-09-03T04:57:28.297Z,18.70
2018-09-03T04:59:59.581Z,18.70
2018-09-03T05:02:30.812Z,18.70
2018-09-03T05:05:02.109Z,18.70
2018-09-03T05:07:33.317Z,18.70
2018-09-03T05:10:04.826Z,18.70
2018-09-03T05:12:36.096Z,18.80
2018-09-03T05:15:07.405Z,18.80
2018-09-03T05:17:38.614Z,18.80
2018-09-03T05:20:09.893Z,18.80
2018-09-03T05:22:41.125Z,18.80
2018-09-03T05:25:12.525Z,18.90
2018-09-03T05:27:43.762Z,18.90
2018-09-03T05:30:15.035Z,18.90
2018-09-03T05:32:46.295Z,18.90
2018-09-03T05:35:17.593Z,19.00
2018-09-03T05:37:48.842Z,19.00
2018-09-03T05:40:20.117Z,19.00
2018-09-03T05:42:51.366Z,19.00
2018-09-03T05:45:22.639Z,19.00
2018-09-03T05:47:53.890Z,19.00
2018-09-03T05:50:25.295Z,19.10
2018-09-03T05:52:56.466Z,19.10
2018-09-03T05:55:27.822Z,19.10
2018-09-03T05:57:59.076Z,19.20
2018-09-03T06:00:30.357Z,19.20
2018-09-03T06:03:01.575Z,19.20
2018-09-03T06:05:32.897Z,19.30
2018-09-03T06:08:04.222Z,19.30
2018-09-03T06:10:35.569Z,19.30
2018-09-03T06:13:06.770Z,19.30
2018-09-03T06:15:38.098Z,19.30
2018-09-03T06:18:09.547Z,19.40
2018-09-03T06:20:40.819Z,19.40
2018-09-03T06:23:12.065Z,19.40
2018-09-03T06:25:43.398Z,19.50
2018-09-03T06:28:15.287Z,19.50
2018-09-03T06:30:46.982Z,19.50
2018-09-03T06:33:18.283Z,19.60
2018-09-03T06:35:50.790Z,19.60
2018-09-03T06:38:24.539Z,19.60
2018-09-03T06:40:55.808Z,19.60
2018-09-03T06:43:27.063Z,19.70
2018-09-03T06:45:58.403Z,19.70
2018-09-03T06:48:29.767Z,19.70
2018-09-03T06:51:01.038Z,19.70
2018-09-03T06:53:32.346Z,19.70
2018-09-03T06:56:03.654Z,19.80
2018-09-03T06:58:35.369Z,19.80
2018-09-03T07:01:07.141Z,19.80
2018-09-03T07:03:38.399Z,19.90
2018-09-03T07:06:09.704Z,19.90
2018-09-03T07:08:41.428Z,19.90
2018-09-03T07:11:13.264Z,20.00
2018-09-03T07:13:44.492Z,20.00
2018-09-03T07:16:15.848Z,20.00
2018-09-03T07:18:47.186Z,20.10
2018-09-03T07:21:18.519Z,20.10
2018-09-03T07:23:49.747Z,20.10
2018-09-03T07:26:21.146Z,20.10
2018-09-03T07:28:52.408Z,20.20
2018-09-03T07:31:23.685Z,20.10
2018-09-03T07:33:54.910Z,20.20
2018-09-03T07:36:26.202Z,20.20
2018-09-03T07:38:57.485Z,20.20
2018-09-03T07:41:28.841Z,20.20
2018-09-03T07:44:00.144Z,20.30
2018-09-03T07:46:31.398Z,20.30
2018-09-03T07:49:02.729Z,20.30
2018-09-03T07:51:33.986Z,20.40
2018-09-03T07:54:05.216Z,20.40
2018-09-03T07:56:36.549Z,20.40
2018-09-03T07:59:08.016Z,20.40
2018-09-03T08:01:39.295Z,20.40
2018-09-03T08:04:10.609Z,20.40
2018-09-03T08:06:41.879Z,20.40
2018-09-03T08:09:13.461Z,20.40
2018-09-03T08:11:44.748Z,20.40
2018-09-03T08:14:15.941Z,20.40
2018-09-03T08:16:47.204Z,20.40
2018-09-03T08:19:18.447Z,20.40
2018-09-03T08:21:49.821Z,20.50
2018-09-03T08:24:21.102Z,20.60
2018-09-03T08:26:52.455Z,20.70
2018-09-03T08:29:23.738Z,20.80
2018-09-03T08:31:55.080Z,21.00
2018-09-03T08:34:26.330Z,21.10
2018-09-03T08:36:57.617Z,21.20
2018-09-03T08:39:28.847Z,21.40
2018-09-03T08:42:00.156Z,21.50
2018-09-03T08:44:31.402Z,21.60
2018-09-03T08:47:02.702Z,21.70
2018-09-03T08:49:33.950Z,21.70
2018-09-03T08:52:05.255Z,21.90
2018-09-03T08:54:36.529Z,21.90
2018-09-03T08:57:09.205Z,22.00
2018-09-03T08:59:40.439Z,22.10
2018-09-03T09:02:11.707Z,22.20
2018-09-03T09:04:43.685Z,22.30
2018-09-03T09:07:16.493Z,22.40
2018-09-03T09:09:47.967Z,22.40
2018-09-03T09:12:19.382Z,22.50
2018-09-03T09:14:51.054Z,22.50
2018-09-03T09:17:22.851Z,22.60
2018-09-03T09:19:54.758Z,22.70
2018-09-03T09:22:26.560Z,22.80
2018-09-03T09:24:59.354Z,22.80
2018-09-03T09:27:31.091Z,22.90
2018-09-03T09:30:03.486Z,23.00
2018-09-03T09:32:34.819Z,23.10
2018-09-03T09:35:06.271Z,23.20
2018-09-03T09:37:37.878Z,23.30
2018-09-03T09:40:09.193Z,23.40
2018-09-03T09:42:41.739Z,23.50
2018-09-03T09:45:13.035Z,23.60
2018-09-03T09:47:44.306Z,23.70
2018-09-03T09:50:15.530Z,23.80
2018-09-03T09:52:46.819Z,23.90
2018-09-03T09:55:18.156Z,24.00
2018-09-03T09:57:49.414Z,24.10
2018-09-03T10:00:25.588Z,24.20
2018-09-03T10:02:56.920Z,24.30
2018-09-03T10:05:28.171Z,24.40
2018-09-03T10:07:59.422Z,24.50
2018-09-03T10:10:30.866Z,24.70
2018-09-03T10:13:02.254Z,24.80
2018-09-03T10:15:33.487Z,24.90
2018-09-03T10:18:04.785Z,25.00
2018-09-03T10:20:36.017Z,25.10
2018-09-03T10:23:07.405Z,25.20
2018-09-03T10:25:38.657Z,25.30
2018-09-03T10:28:15.448Z,25.50
2018-09-03T10:30:46.678Z,25.70
2018-09-03T10:33:17.946Z,25.80
2018-09-03T10:35:49.166Z,25.80
2018-09-03T10:38:20.454Z,25.90
2018-09-03T10:40:51.676Z,26.00
2018-09-03T10:43:22.927Z,26.10
2018-09-03T10:45:54.128Z,26.30
2018-09-03T10:48:25.422Z,26.50
2018-09-03T10:50:56.648Z,26.70
2018-09-03T10:53:27.959Z,26.80
2018-09-03T10:55:59.225Z,27.00
2018-09-03T10:58:30.490Z,27.10
2018-09-03T11:01:01.765Z,27.30
2018-09-03T11:03:33.017Z,27.40
2018-09-03T11:06:04.265Z,27.60
2018-09-03T11:08:35.533Z,27.70
2018-09-03T11:11:06.789Z,27.80
2018-09-03T11:13:38.041Z,27.90
2018-09-03T11:16:09.353Z,28.00
2018-09-03T11:18:40.649Z,28.10
2018-09-03T11:21:11.935Z,28.10
2018-09-03T11:23:43.220Z,28.20
2018-09-03T11:26:14.506Z,28.30
2018-09-03T11:28:45.798Z,28.20
2018-09-03T11:31:17.037Z,28.30
2018-09-03T11:33:48.297Z,28.40
2018-09-03T11:36:19.564Z,28.50
2018-09-03T11:38:50.812Z,28.60
2018-09-03T11:41:22.093Z,28.80
2018-09-03T11:43:53.353Z,28.80
2018-09-03T11:46:24.714Z,28.90
2018-09-03T11:48:56.026Z,29.00
2018-09-03T11:51:27.280Z,28.90
2018-09-03T11:53:58.624Z,29.00
2018-09-03T11:56:29.901Z,29.10
2018-09-03T11:59:01.169Z,29.20
2018-09-03T12:01:32.440Z,29.20
2018-09-03T12:04:03.759Z,29.30
2018-09-03T12:06:34.996Z,29.20
2018-09-03T12:09:08.851Z,29.20
2018-09-03T12:11:40.105Z,29.30
2018-09-03T12:14:17.064Z,29.40
2018-09-03T12:16:48.357Z,29.70
2018-09-03T12:19:19.730Z,29.70
2018-09-03T12:21:50.992Z,29.70
2018-09-03T12:24:22.294Z,29.80
2018-09-03T12:26:53.566Z,29.90
2018-09-03T12:29:24.859Z,30.10
2018-09-03T12:31:56.178Z,30.30
2018-09-03T12:34:27.458Z,30.40
2018-09-03T12:36:58.717Z,30.60
2018-09-03T12:39:30.020Z,30.70
2018-09-03T12:42:01.278Z,30.90
2018-09-03T12:44:32.606Z,31.00
2018-09-03T12:47:03.859Z,31.00
2018-09-03T12:49:35.106Z,31.10
2018-09-03T12:52:06.365Z,31.20
2018-09-03T12:54:37.626Z,31.30
2018-09-03T12:57:08.911Z,31.40
2018-09-03T12:59:40.257Z,31.50
2018-09-03T13:02:11.822Z,31.60
2018-09-03T13:04:43.101Z,31.70
2018-09-03T13:07:14.325Z,31.80
2018-09-03T13:09:45.597Z,31.80
2018-09-03T13:12:16.865Z,31.90
2018-09-03T13:14:48.115Z,31.90
2018-09-03T13:17:19.394Z,31.90
2018-09-03T13:19:50.753Z,32.10
2018-09-03T13:22:22.027Z,32.20
2018-09-03T13:24:53.577Z,32.20
2018-09-03T13:27:24.818Z,32.10
2018-09-03T13:29:56.101Z,32.10
2018-09-03T13:32:27.397Z,32.10
2018-09-03T13:34:58.662Z,32.20
2018-09-03T13:37:30.096Z,32.50
2018-09-03T13:40:01.396Z,32.60
2018-09-03T13:42:32.731Z,32.70
2018-09-03T13:45:04.014Z,32.90
2018-09-03T13:47:36.009Z,32.90
2018-09-03T13:50:07.934Z,32.80
2018-09-03T13:52:39.184Z,32.60
2018-09-03T13:55:10.549Z,32.60
2018-09-03T13:57:41.814Z,32.80
2018-09-03T14:00:14.205Z,33.00
2018-09-03T14:02:45.433Z,33.20
2018-09-03T14:05:16.718Z,33.20
2018-09-03T14:07:48.045Z,33.20
2018-09-03T14:10:19.375Z,33.10
2018-09-03T14:12:50.613Z,33.10
2018-09-03T14:15:21.894Z,33.20
2018-09-03T14:17:54.121Z,33.30
2018-09-03T14:20:25.435Z,33.20
2018-09-03T14:22:57.101Z,33.30
2018-09-03T14:25:28.626Z,33.30
2018-09-03T14:28:00.134Z,33.10
2018-09-03T14:30:31.461Z,33.00
2018-09-03T14:33:02.758Z,33.00
2018-09-03T14:35:34.071Z,33.10
2018-09-03T14:38:05.358Z,33.20
2018-09-03T14:40:36.650Z,33.40
2018-09-03T14:43:08.158Z,33.70
2018-09-03T14:45:39.431Z,33.90
2018-09-03T14:48:10.636Z,34.10
2018-09-03T14:50:42.794Z,34.40
2018-09-03T14:53:14.046Z,34.60
2018-09-03T14:55:45.465Z,34.70
2018-09-03T14:58:16.716Z,34.70
2018-09-03T15:00:48.023Z,34.80
2018-09-03T15:03:19.276Z,34.80
2018-09-03T15:05:50.571Z,34.80
2018-09-03T15:08:21.927Z,34.90
2018-09-03T15:10:53.253Z,35.00
2018-09-03T15:13:24.573Z,35.10
2018-09-03T15:15:55.844Z,35.10
2018-09-03T15:18:27.108Z,35.10
2018-09-03T15:20:58.477Z,35.20
2018-09-03T15:23:29.737Z,35.20
2018-09-03T15:26:01.057Z,35.20
2018-09-03T15:28:32.274Z,35.20
2018-09-03T15:31:03.564Z,35.10
2018-09-03T15:33:34.786Z,35.00
2018-09-03T15:36:06.237Z,35.00
2018-09-03T15:38:37.577Z,34.80
2018-09-03T15:41:09.447Z,34.60
2018-09-03T15:43:40.676Z,34.20
2018-09-03T15:46:12.358Z,34.10
2018-09-03T15:48:43.671Z,34.10
2018-09-03T15:51:15.768Z,34.20
2018-09-03T15:53:47.078Z,34.20
2018-09-03T15:56:18.470Z,34.20
2018-09-03T15:58:49.726Z,34.20
2018-09-03T16:01:20.996Z,34.10
2018-09-03T16:03:52.218Z,33.80
2018-09-03T16:06:23.497Z,33.60
2018-09-03T16:08:54.787Z,33.50
2018-09-03T16:11:26.078Z,33.50
2018-09-03T16:13:57.381Z,33.40
2018-09-03T16:16:28.725Z,33.40
2018-09-03T16:18:59.973Z,33.40
2018-09-03T16:21:31.277Z,33.30
2018-09-03T16:24:02.509Z,33.20
2018-09-03T16:26:33.823Z,33.10
2018-09-03T16:29:05.035Z,33.10
2018-09-03T16:31:36.354Z,33.00
2018-09-03T16:34:08.198Z,32.80
2018-09-03T16:36:39.511Z,32.70
2018-09-03T16:39:10.763Z,32.50
2018-09-03T16:41:42.242Z,32.40
2018-09-03T16:44:13.506Z,32.30
2018-09-03T16:46:44.793Z,32.10
2018-09-03T16:49:16.045Z,31.90
2018-09-03T16:51:47.331Z,31.70
2018-09-03T16:54:18.640Z,31.50
2018-09-03T16:56:49.932Z,31.30
2018-09-03T16:59:23.328Z,31.00
2018-09-03T17:01:54.635Z,30.70
2018-09-03T17:04:25.947Z,30.40
2018-09-03T17:06:57.302Z,30.10
2018-09-03T17:09:28.862Z,29.90
2018-09-03T17:12:00.142Z,29.70
2018-09-03T17:14:34.638Z,29.50
2018-09-03T17:17:05.978Z,29.40
2018-09-03T17:19:37.238Z,29.20
2018-09-03T17:22:08.648Z,29.10
2018-09-03T17:24:40.130Z,28.90
2018-09-03T17:27:11.443Z,28.80
2018-09-03T17:29:42.765Z,28.70
2018-09-03T17:32:14.085Z,28.50
2018-09-03T17:34:46.125Z,28.50
2018-09-03T17:37:17.674Z,28.30
2018-09-03T17:39:48.965Z,28.30
2018-09-03T17:42:20.270Z,28.20
2018-09-03T17:44:51.526Z,28.00
2018-09-03T17:47:22.871Z,27.90
2018-09-03T17:49:54.134Z,27.80
2018-09-03T17:52:25.467Z,27.60
2018-09-03T17:54:56.741Z,27.50
2018-09-03T17:57:28.065Z,27.40
2018-09-03T17:59:59.415Z,27.30
2018-09-03T18:02:30.826Z,27.20
2018-09-03T18:05:13.985Z,27.10
2018-09-03T18:07:45.494Z,27.00
2018-09-03T18:10:16.757Z,26.90
2018-09-03T18:12:48.028Z,26.80
2018-09-03T18:15:20.538Z,26.70
2018-09-03T18:17:53.120Z,26.60
2018-09-03T18:20:24.365Z,26.50
2018-09-03T18:22:55.678Z,26.40
2018-09-03T18:25:26.936Z,26.40
2018-09-03T18:27:58.182Z,26.30
2018-09-03T18:30:29.522Z,26.30
2018-09-03T18:33:00.779Z,26.20
2018-09-03T18:35:32.045Z,26.20
2018-09-03T18:38:03.293Z,26.10
2018-09-03T18:40:35.021Z,26.00
2018-09-03T18:43:06.332Z,25.90
2018-09-03T18:45:37.623Z,25.80
2018-09-03T18:48:08.998Z,25.80
2018-09-03T18:50:40.207Z,25.70
2018-09-03T18:53:11.482Z,25.60
2018-09-03T18:55:42.712Z,25.60
2018-09-03T18:58:13.988Z,25.50
2018-09-03T19:00:45.291Z,25.40
2018-09-03T19:03:16.582Z,25.30
2018-09-03T19:05:47.985Z,25.20
2018-09-03T19:08:19.264Z,25.20
2018-09-03T19:10:50.489Z,25.10
2018-09-03T19:13:21.766Z,25.00
2018-09-03T19:15:53.013Z,25.00
2018-09-03T19:18:24.370Z,24.90
2018-09-03T19:20:55.615Z,24.80
2018-09-03T19:23:26.941Z,24.70
2018-09-03T19:25:58.228Z,24.70
2018-09-03T19:28:29.551Z,24.60
2018-09-03T19:31:00.854Z,24.50
2018-09-03T19:33:32.193Z,24.50
2018-09-03T19:36:03.473Z,24.40
2018-09-03T19:38:38.054Z,24.40
2018-09-03T19:41:09.820Z,24.30
2018-09-03T19:43:41.644Z,24.20
2018-09-03T19:46:14.014Z,24.20
2018-09-03T19:48:45.672Z,24.10
2018-09-03T19:51:17.806Z,24.10
2018-09-03T19:53:49.068Z,24.00
2018-09-03T19:56:20.457Z,23.90
2018-09-03T19:58:57.487Z,23.90
2018-09-03T20:01:29.167Z,23.80
2018-09-03T20:04:01.072Z,23.80
2018-09-03T20:06:33.842Z,23.80
2018-09-03T20:09:07.345Z,23.70
2018-09-03T20:11:39.739Z,23.60
2018-09-03T20:14:13.328Z,23.60
2018-09-03T20:16:45.020Z,23.50
2018-09-03T20:19:16.373Z,23.50
2018-09-03T20:21:48.584Z,23.40
2018-09-03T20:24:20.333Z,23.40
2018-09-03T20:26:52.044Z,23.30
2018-09-03T20:29:23.870Z,23.30
2018-09-03T20:31:55.521Z,23.20
2018-09-03T20:34:26.851Z,23.20
2018-09-03T20:37:00.302Z,23.10
2018-09-03T20:39:31.550Z,23.10
2018-09-03T20:42:02.781Z,23.00
2018-09-03T20:44:34.095Z,22.90
2018-09-03T20:47:05.350Z,22.90
2018-09-03T20:49:36.683Z,22.80
2018-09-03T20:52:08.030Z,22.70
2018-09-03T20:54:40.618Z,22.70
2018-09-03T20:57:12.621Z,22.70
2018-09-03T20:59:44.092Z,22.60
2018-09-03T21:02:18.860Z,22.50
2018-09-03T21:04:52.853Z,22.50
2018-09-03T21:07:26.781Z,22.50
2018-09-03T21:10:00.253Z,22.40
2018-09-03T21:12:32.900Z,22.40
2018-09-03T21:15:05.549Z,22.40
2018-09-03T21:17:39.213Z,22.30
2018-09-03T21:20:11.988Z,22.20
2018-09-03T21:22:44.585Z,22.20
2018-09-03T21:25:17.296Z,22.10
2018-09-03T21:27:49.873Z,22.10
2018-09-03T21:30:22.447Z,22.00
2018-09-03T21:32:54.968Z,22.00
2018-09-03T21:35:27.504Z,21.90
2018-09-03T21:38:00.147Z,21.90
2018-09-03T21:40:32.770Z,21.90
2018-09-03T21:43:05.357Z,21.90
2018-09-03T21:45:37.981Z,21.80
2018-09-03T21:48:10.506Z,21.80
2018-09-03T21:50:43.051Z,21.70
2018-09-03T21:53:15.524Z,21.70
2018-09-03T21:55:48.085Z,21.60
2018-09-03T21:58:20.580Z,21.60
2018-09-03T22:00:53.334Z,21.50
2018-09-03T22:03:26.084Z,21.40
2018-09-03T22:05:59.135Z,21.40
2018-09-03T22:08:31.753Z,21.30
2018-09-03T22:11:04.342Z,21.30
2018-09-03T22:13:36.833Z,21.20
2018-09-03T22:16:10.183Z,21.10
2018-09-03T22:18:43.036Z,21.10
2018-09-03T22:21:15.792Z,21.00
2018-09-03T22:23:48.344Z,20.90
2018-09-03T22:26:21.167Z,20.90
2018-09-03T22:28:53.648Z,20.80
2018-09-03T22:31:26.281Z,20.80
2018-09-03T22:33:58.798Z,20.70
2018-09-03T22:36:31.570Z,20.80
2018-09-03T22:39:04.257Z,20.70
2018-09-03T22:41:36.993Z,20.70
2018-09-03T22:44:09.675Z,20.70
2018-09-03T22:46:42.201Z,20.60
2018-09-03T22:49:14.787Z,20.60
2018-09-03T22:51:47.485Z,20.60
2018-09-03T22:54:19.976Z,20.60
2018-09-03T22:56:52.682Z,20.60
2018-09-03T22:59:25.298Z,20.50
2018-09-03T23:01:57.967Z,20.50
2018-09-03T23:04:30.515Z,20.50
2018-09-03T23:07:03.081Z,20.40
2018-09-03T23:09:35.533Z,20.40
2018-09-03T23:12:08.186Z,20.40
2018-09-03T23:14:40.587Z,20.40
2018-09-03T23:17:13.225Z,20.30
2018-09-03T23:19:45.663Z,20.30
2018-09-03T23:22:18.266Z,20.30
2018-09-03T23:24:50.842Z,20.20
2018-09-03T23:27:23.408Z,20.20
2018-09-03T23:29:55.879Z,20.20
2018-09-03T23:32:28.391Z,20.10
2018-09-03T23:35:01.045Z,20.10
2018-09-03T23:37:33.556Z,20.10
2018-09-03T23:40:12.611Z,20.00
2018-09-03T23:42:45.082Z,20.00
2018-09-03T23:45:17.642Z,19.90
2018-09-03T23:47:50.379Z,20.00
2018-09-03T23:50:22.882Z,19.90
2018-09-03T23:52:55.440Z,19.90
2018-09-03T23:55:28.333Z,19.80
2018-09-03T23:58:01.044Z,19.90
